DW4338 Bergen NO current weather conditions

sailwx.info

Wind from 117 at 13 knots gusting 28

Air temperature 7.8° C
Dewpoint 6.4° C

Last reported at 2017-Oct-17 00:07 UTC.
Time now 2017-Oct-17 00:54 UTC

Location: N 60°31' E 004°54'.
View on Google Maps.

See reports from other nearby stations

  
Tides and Currents Weather Stations Pressure Air Temp Water Temp Dewpoint Dewpoint Depression Visibility Wind Speed Wind Dir Waves Ship Positions
date/time (UTC)wind fromknots sea level pressurealtimeterstation pressurevisibilityair tempwater tempwave heightnotes
2017-Oct-17 00:07 117 13 gusting 28 7.8
2017-Oct-16 23:49 104 13 gusting 33 7.8
2017-Oct-16 23:34 070 8 gusting 23 7.8
2017-Oct-16 23:16 078 7 gusting 22 7.8
2017-Oct-16 23:00 094 13 gusting 26 7.8
2017-Oct-16 22:45 088 18 gusting 30 7.8
2017-Oct-16 22:30 096 17 gusting 33 7.8
2017-Oct-16 22:15 063 12 gusting 31 7.8
2017-Oct-16 21:59 078 12 gusting 28 8.3
2017-Oct-16 21:44 128 9 gusting 18 8.3
2017-Oct-16 21:29 129 8 gusting 21 8.3
2017-Oct-16 21:14 124 9 gusting 19 8.3
2017-Oct-16 20:59 106 8 gusting 21 8.3
2017-Oct-16 20:45 112 8.3
2017-Oct-16 20:29 014 8.9
2017-Oct-16 20:14 140 3 gusting 16 8.9
2017-Oct-16 19:59 114 6 gusting 11 8.9
2017-Oct-16 19:44 110 2 gusting 12 8.9
2017-Oct-16 19:29 096 6 gusting 12 8.9
2017-Oct-16 19:14 098 8.9
2017-Oct-16 18:59 098 3 gusting 11 8.9
2017-Oct-16 18:44 134 8.9
2017-Oct-16 18:29 134 9.4
2017-Oct-16 18:14 134 3 gusting 17 9.4
2017-Oct-16 17:59 126 6 gusting 13 9.4
2017-Oct-16 17:44 143 9.4
2017-Oct-16 17:29 143 9.4
2017-Oct-16 17:14 136 6 gusting 13 9.4
2017-Oct-16 16:59 130 9 gusting 19 9.4
2017-Oct-16 16:44 140 9 gusting 15 9.4
2017-Oct-16 16:29 138 6 gusting 16 9.4
2017-Oct-16 16:14 144 7 gusting 15 9.4
2017-Oct-16 16:00 159 8 gusting 15 10.0
2017-Oct-16 15:44 138 9 gusting 17 10.0
2017-Oct-16 15:29 146 9 gusting 17 10.0
2017-Oct-16 15:14 253 3 gusting 9 10.0
2017-Oct-16 14:59 263 10.0
2017-Oct-16 14:44 263 10.0
2017-Oct-16 14:29 263 10.0
2017-Oct-16 14:14 263 10.0
2017-Oct-16 13:59 263 10.0
2017-Oct-16 13:44 263 10.0
2017-Oct-16 13:29 268 12 gusting 20 10.6
2017-Oct-16 13:14 234 6 gusting 13 10.6
2017-Oct-16 12:59 235 8 gusting 19 10.6
2017-Oct-16 12:44 279 7 gusting 18 10.6
2017-Oct-16 12:29 283 6 gusting 16 10.6
2017-Oct-16 12:14 310 2 gusting 11 10.6
2017-Oct-16 11:59 309 10 gusting 17 10.6
2017-Oct-16 11:44 311 5 gusting 13 10.6
2017-Oct-16 11:29 325 5 gusting 11 10.6
2017-Oct-16 11:14 325 6 gusting 13 10.6
2017-Oct-16 10:59 325 6 gusting 18 10.6
2017-Oct-16 10:44 325 1 gusting 13 10.6
2017-Oct-16 10:29 325 6 gusting 13 10.6
2017-Oct-16 10:14 276 5 gusting 13 11.1
2017-Oct-16 09:59 290 0 gusting 19 10.6
2017-Oct-16 09:44 303 4 gusting 15 10.0
2017-Oct-16 09:29 293 7 gusting 13 10.0
2017-Oct-16 09:14 094 10.0
2017-Oct-16 08:59 080 9.4
2017-Oct-16 08:44 079 5 gusting 9 9.4
2017-Oct-16 08:29 079 7 gusting 12 8.9
2017-Oct-16 08:14 078 8.9
2017-Oct-16 07:59 029 9.4
2017-Oct-16 07:44 025 8.9
2017-Oct-16 07:29 014 8.9
2017-Oct-16 07:14 013 8.9
2017-Oct-16 06:58 336 8.9
2017-Oct-16 06:44 335 8.9
2017-Oct-16 06:28 334 8.9
2017-Oct-16 06:13 333 8.9
2017-Oct-16 05:58 333 6 gusting 20 8.9
2017-Oct-16 05:44 351 1 gusting 16 8.9
2017-Oct-16 05:29 348 8.9
2017-Oct-16 05:14 348 8.9
2017-Oct-16 04:58 335 8.9
2017-Oct-16 04:43 333 8.9
2017-Oct-16 04:29 349 8 gusting 21 8.9
2017-Oct-16 04:13 338 0 gusting 17 8.9
2017-Oct-16 03:58 313 11 gusting 28 8.9
2017-Oct-16 03:43 337 7 gusting 25 8.9
2017-Oct-16 03:28 346 6 gusting 27 8.9
2017-Oct-16 03:14 355 13 gusting 21 8.9
2017-Oct-16 02:58 326 13 gusting 25 8.9
2017-Oct-16 02:43 306 11 gusting 28 8.9
2017-Oct-16 02:28 314 8 gusting 19 8.9
2017-Oct-16 02:13 360 6 gusting 28 8.9
2017-Oct-16 01:58 323 10 gusting 39 8.9
2017-Oct-16 01:43 304 21 gusting 42 8.9
2017-Oct-16 01:28 312 11 gusting 33 9.4
2017-Oct-16 01:13 316 22 gusting 39 9.4
2017-Oct-16 00:58 298 28 gusting 46 9.4
2017-Oct-16 00:43 314 23 gusting 39 9.4
2017-Oct-16 00:28 013 19 gusting 34 9.4
2017-Oct-16 00:13 329 13 gusting 46 10.0
2017-Oct-15 23:58 294 33 gusting 62 10.0
2017-Oct-15 23:43 301 43 gusting 70 10.0
2017-Oct-15 23:28 292 43 gusting 68 10.0
2017-Oct-15 23:13 311 51 gusting 72 10.0
2017-Oct-15 22:58 267 42 gusting 61 10.6
2017-Oct-15 22:43 272 42 gusting 68 10.6
2017-Oct-15 22:27 267 46 gusting 66 10.6
2017-Oct-15 22:12 315 46 gusting 72 11.1
2017-Oct-15 21:57 294 50 gusting 75 11.1
2017-Oct-15 21:43 242 45 gusting 72 11.1
2017-Oct-15 21:27 300 46 gusting 84 11.1
2017-Oct-15 21:12 257 54 gusting 75 11.7
2017-Oct-15 20:57 257 53 gusting 75 12.2
2017-Oct-15 20:42 360 33 gusting 72 12.8
2017-Oct-15 20:27 219 46 gusting 72 12.8
2017-Oct-15 20:12 238 41 gusting 65 12.2
2017-Oct-15 19:57 244 41 gusting 69 12.2
2017-Oct-15 19:42 182 39 gusting 66 12.2
2017-Oct-15 19:27 198 40 gusting 66 12.2
2017-Oct-15 19:12 240 36 gusting 70 12.2
2017-Oct-15 18:57 229 40 gusting 70 12.2
2017-Oct-15 18:42 193 43 gusting 72 12.2
2017-Oct-15 18:27 201 37 gusting 70 12.2
2017-Oct-15 18:13 215 38 gusting 69 12.2
2017-Oct-15 17:57 181 44 gusting 72 12.2
2017-Oct-15 17:42 193 39 gusting 71 12.2
2017-Oct-15 17:27 126 33 gusting 65 12.2
2017-Oct-15 17:12 200 26 gusting 67 12.2
2017-Oct-15 16:57 171 37 gusting 75 12.2
2017-Oct-15 16:42 197 28 gusting 82 12.2
2017-Oct-15 16:27 196 37 gusting 70 12.2
2017-Oct-15 16:13 196 36 gusting 59 12.2
2017-Oct-15 15:57 211 28 gusting 63 12.2
2017-Oct-15 15:42 195 30 gusting 59 12.2
2017-Oct-15 15:27 196 31 gusting 62 12.2
2017-Oct-15 15:12 231 30 gusting 55 12.2
2017-Oct-15 14:57 274 35 gusting 64 12.2
2017-Oct-15 14:42 132 34 gusting 65 12.2
2017-Oct-15 14:27 104 27 gusting 59 12.2
2017-Oct-15 14:12 080 26 gusting 66 12.2
2017-Oct-15 13:57 223 32 gusting 62 12.2
2017-Oct-15 13:43 161 27 gusting 71 12.2
2017-Oct-15 13:27 226 29 gusting 62 12.2
2017-Oct-15 12:57 308 34 gusting 60 12.2
2017-Oct-15 12:42 223 32 gusting 59 12.2
2017-Oct-15 12:27 252 27 gusting 53 12.2
2017-Oct-15 12:12 198 31 gusting 59 12.2
2017-Oct-15 11:57 235 34 gusting 63 12.2
2017-Oct-15 11:42 209 36 gusting 75 12.2
2017-Oct-15 11:27 217 36 gusting 72 12.2
2017-Oct-15 11:12 207 36 gusting 75 12.2
2017-Oct-15 10:57 254 40 gusting 67 12.8
2017-Oct-15 10:42 203 32 gusting 55 12.8
2017-Oct-15 10:27 215 38 gusting 73 12.8
2017-Oct-15 10:13 176 26 gusting 63 12.8
2017-Oct-15 09:57 155 22 gusting 62 12.2
2017-Oct-15 09:42 189 26 gusting 64 12.2
2017-Oct-15 09:27 210 26 gusting 57 12.2
2017-Oct-15 09:12 138 19 gusting 45 11.7
2017-Oct-15 08:56 187 18 gusting 50 11.1
2017-Oct-15 08:42 141 20 gusting 44 11.1
2017-Oct-15 08:27 233 19 gusting 42 10.6
2017-Oct-15 08:11 146 19 gusting 41 10.0
2017-Oct-15 07:56 169 25 gusting 43 10.0
2017-Oct-15 07:41 164 29 gusting 59 10.0
2017-Oct-15 07:26 161 23 gusting 54 9.4
2017-Oct-15 07:11 154 21 gusting 50 9.4
2017-Oct-15 06:56 154 19 gusting 39 9.4
2017-Oct-15 06:41 141 27 gusting 53 9.4
2017-Oct-15 06:26 113 24 gusting 44 8.9
2017-Oct-15 06:11 117 26 gusting 39 8.9
2017-Oct-15 05:56 135 22 gusting 41 8.9
2017-Oct-15 05:41 158 14 gusting 28 8.9
2017-Oct-15 05:26 136 14 gusting 24 8.9
2017-Oct-15 05:11 128 16 gusting 28 8.3
2017-Oct-15 04:56 131 7 gusting 20 8.3
2017-Oct-15 04:41 126 5 gusting 13 7.8
2017-Oct-15 04:26 119 8 gusting 15 7.8
2017-Oct-15 04:11 115 6 gusting 13 8.3
2017-Oct-15 03:56 296 8.3
2017-Oct-15 03:41 296 4 gusting 13 8.3
2017-Oct-15 03:26 275 13 gusting 51 8.9
2017-Oct-15 03:12 261 16 gusting 26 9.4
2017-Oct-15 02:56 226 17 gusting 33 10.0
2017-Oct-15 02:40 221 15 gusting 33 11.1
2017-Oct-15 02:25 246 20 gusting 31 11.1
2017-Oct-15 02:10 242 16 gusting 30 11.1
2017-Oct-15 01:55 234 19 gusting 33 11.1
2017-Oct-15 01:41 260 19 gusting 37 11.1
2017-Oct-15 01:25 256 21 gusting 39 11.1
2017-Oct-15 01:10 248 27 gusting 40 11.1
2017-Oct-15 00:57 306 22 gusting 40 11.1
2017-Oct-15 00:40 251 26 gusting 42 11.1
2017-Oct-15 00:25 253 22 gusting 45 11.1
2017-Oct-15 00:10 264 27 gusting 44 11.1